Time;durP1;ratioP1;P1;durP2;ratioP2;P2;SDS_P1;SDS_P2;PMS_P1;PMS_P2;Temp;Humidity;BMP_temperature;BMP_pressure;BME280_temperature;BME280_humidity;BME280_pressure;Samples;Min_cycle;Max_cycle;Signal;HPM_P1;HPM_P2
2022/03/17 00:04:21;;;;;;;2.20;2.00;;;;;;;16.95;51.41;97024.38;10460213;28;20489;-25
2022/03/17 00:09:22;;;;;;;4.07;2.08;;;;;;;16.94;51.40;97021.81;10465994;28;20107;-25
2022/03/17 00:14:23;;;;;;;2.53;2.10;;;;;;;16.92;50.92;97023.50;10460488;28;20116;-25
2022/03/17 00:19:25;;;;;;;4.82;2.40;;;;;;;16.92;51.08;97023.50;10458968;28;20034;-25
2022/03/17 00:24:26;;;;;;;2.95;2.60;;;;;;;16.91;50.92;97022.63;10462801;28;20028;-25
2022/03/17 00:29:26;;;;;;;7.47;3.33;;;;;;;16.99;54.99;97026.09;10460557;28;20037;-25
2022/03/17 00:34:27;;;;;;;6.00;2.88;;;;;;;17.05;55.02;97032.88;10459663;28;20029;-25
2022/03/17 00:39:27;;;;;;;4.80;2.97;;;;;;;17.02;54.53;97028.66;10458127;28;20445;-25
2022/03/17 00:44:28;;;;;;;3.53;2.10;;;;;;;16.99;51.52;97030.31;10465738;28;20040;-25
2022/03/17 00:49:28;;;;;;;2.93;2.00;;;;;;;16.95;50.72;97033.63;10458822;28;20485;-25
2022/03/17 00:54:28;;;;;;;4.10;2.23;;;;;;;16.95;51.52;97043.75;10469267;28;20286;-25
2022/03/17 00:59:29;;;;;;;3.67;1.90;;;;;;;16.93;51.46;97042.88;10457397;28;20041;-25
2022/03/17 01:04:29;;;;;;;2.23;2.03;;;;;;;16.92;51.46;97033.59;10456283;28;20033;-25
2022/03/17 01:09:30;;;;;;;3.00;2.20;;;;;;;16.91;51.57;97031.91;10468180;28;20094;-24
2022/03/17 01:14:31;;;;;;;3.53;2.22;;;;;;;16.91;51.38;97036.97;10443301;28;20048;-27
2022/03/17 01:19:31;;;;;;;3.30;2.30;;;;;;;16.92;51.73;97043.72;10460983;28;20037;-25
2022/03/17 01:24:32;;;;;;;2.37;2.17;;;;;;;16.92;51.69;97044.56;10465328;28;20036;-25
2022/03/17 01:29:32;;;;;;;2.17;1.70;;;;;;;16.91;51.76;97045.38;10461736;28;20306;-25
2022/03/17 01:34:32;;;;;;;4.67;2.53;;;;;;;16.98;55.17;97038.75;10464040;28;20029;-25
2022/03/17 01:39:33;;;;;;;5.93;2.40;;;;;;;17.04;55.08;97048.91;10466448;28;20036;-25
2022/03/17 01:44:34;;;;;;;4.63;2.67;;;;;;;17.00;53.72;97047.19;10468644;28;20306;-25
2022/03/17 01:49:35;;;;;;;2.53;1.92;;;;;;;16.97;51.56;97049.66;10470389;28;20034;-24
2022/03/17 01:54:36;;;;;;;2.20;2.00;;;;;;;16.95;51.31;97052.19;10473065;28;20037;-25
2022/03/17 01:59:39;;;;;;;4.32;2.00;;;;;;;16.95;51.14;97056.38;10462535;28;20162;-25
2022/03/17 02:04:41;;;;;;;3.40;2.40;;;;;;;16.94;51.44;97057.22;10465283;28;20500;-25
2022/03/17 02:09:43;;;;;;;4.40;1.75;;;;;;;16.94;51.34;97060.63;10475722;28;20033;-24
2022/03/17 02:14:51;;;;;;;2.65;2.28;;;;;;;16.91;51.18;97055.50;10465555;28;20032;-25
2022/03/17 02:19:51;;;;;;;3.20;2.20;;;;;;;16.92;51.44;97056.38;10468312;28;20636;-25
2022/03/17 02:30:13;;;;;;;3.95;2.15;;;;;;;16.91;51.23;97062.25;10460982;28;20502;-25
2022/03/17 02:35:20;;;;;;;1.67;1.58;;;;;;;16.93;51.13;97055.53;10462618;28;20071;-24
2022/03/17 02:40:21;;;;;;;3.80;2.30;;;;;;;16.99;55.29;97060.66;10465812;28;20488;-25
2022/03/17 02:45:21;;;;;;;3.58;2.72;;;;;;;17.04;55.60;97048.91;10465279;28;20048;-25
2022/03/17 02:50:22;;;;;;;2.75;2.15;;;;;;;17.00;54.40;97060.66;10468008;28;20074;-24
2022/03/17 02:55:22;;;;;;;4.15;1.90;;;;;;;16.98;52.27;97064.03;10464802;28;20033;-25
2022/03/17 03:00:23;;;;;;;1.92;1.67;;;;;;;16.96;51.48;97061.47;10462080;28;20566;-25
2022/03/17 03:05:24;;;;;;;2.13;1.70;;;;;;;16.94;51.53;97064.81;10464898;28;20032;-25
2022/03/17 03:10:25;;;;;;;2.70;2.05;;;;;;;16.92;51.34;97079.13;10468679;28;20794;-25
2022/03/17 03:15:26;;;;;;;2.28;1.77;;;;;;;16.92;51.28;97086.72;10462066;28;20037;-25
2022/03/17 03:20:26;;;;;;;2.72;1.80;;;;;;;16.88;51.51;97087.50;10462608;28;20033;-24
2022/03/17 03:25:27;;;;;;;1.67;1.58;;;;;;;16.90;51.48;97101.03;10467713;28;20040;-25
2022/03/17 03:30:27;;;;;;;1.97;1.50;;;;;;;16.89;51.22;97100.16;10459463;28;20033;-25
2022/03/17 03:40:47;;;;;;;2.35;1.77;;;;;;;16.85;51.87;97097.56;10459781;28;20044;-25
2022/03/17 03:45:50;;;;;;;5.80;2.58;;;;;;;16.94;55.20;97103.59;10459258;28;20033;-25
2022/03/17 03:50:50;;;;;;;3.83;2.20;;;;;;;16.99;55.55;97112.09;10451015;28;20565;-25
2022/03/17 03:55:50;;;;;;;2.60;2.40;;;;;;;16.98;54.74;97107.03;10460948;28;20085;-25
2022/03/17 04:00:51;;;;;;;1.70;1.60;;;;;;;16.94;52.01;97115.38;10458024;28;20036;-24
2022/03/17 04:05:51;;;;;;;4.10;1.73;;;;;;;16.92;51.15;97112.00;10466557;28;20028;-24
2022/03/17 04:10:52;;;;;;;1.67;1.58;;;;;;;16.91;51.51;97115.38;10464863;28;20429;-25
2022/03/17 04:15:52;;;;;;;4.43;1.93;;;;;;;16.90;51.55;97121.25;10461755;28;20377;-25
2022/03/17 04:20:52;;;;;;;1.83;1.70;;;;;;;16.88;51.49;97118.69;10460587;28;20039;-26
2022/03/17 04:25:53;;;;;;;2.43;2.20;;;;;;;16.88;51.67;97122.91;10466037;28;20037;-25
2022/03/17 04:30:53;;;;;;;2.13;1.53;;;;;;;16.90;51.31;97123.78;10458564;28;20485;-25
2022/03/17 04:35:53;;;;;;;1.60;1.17;;;;;;;16.89;51.17;97124.63;10455922;28;20048;-25
2022/03/17 04:40:54;;;;;;;1.90;1.70;;;;;;;16.90;51.21;97136.44;10459273;28;20090;-25
2022/03/17 04:45:54;;;;;;;2.25;1.60;;;;;;;16.90;51.34;97147.38;10462753;28;20127;-25
2022/03/17 04:50:55;;;;;;;2.10;1.73;;;;;;;16.94;54.58;97153.31;10444402;28;20037;-24
2022/03/17 04:55:58;;;;;;;5.90;2.67;;;;;;;16.87;55.34;97141.44;10460088;28;20501;-26
2022/03/17 05:01:00;;;;;;;3.33;2.33;;;;;;;17.01;52.76;97158.50;10436389;28;20044;-25
2022/03/17 05:06:01;;;;;;;2.17;1.70;;;;;;;17.01;51.47;97155.09;10457553;28;20135;-25
2022/03/17 05:11:03;;;;;;;2.17;1.83;;;;;;;17.03;51.31;97169.47;10456314;28;20184;-24
2022/03/17 05:16:04;;;;;;;3.60;1.80;;;;;;;16.98;51.42;97170.25;10463171;28;20032;-23
2022/03/17 05:21:06;;;;;;;2.47;2.08;;;;;;;17.01;51.55;97177.88;10441584;28;20041;-24
2022/03/17 05:26:07;;;;;;;2.53;1.67;;;;;;;17.03;51.68;97188.84;10453024;28;20028;-24
2022/03/17 05:31:08;;;;;;;4.50;2.33;;;;;;;17.02;51.59;97188.03;10471433;28;20039;-25
2022/03/17 05:36:08;;;;;;;2.53;1.60;;;;;;;17.02;51.32;97194.75;10458538;28;20033;-24
2022/03/17 05:41:09;;;;;;;1.67;1.58;;;;;;;17.00;51.17;97193.88;10475579;28;20508;-25
2022/03/17 05:46:09;;;;;;;2.97;1.80;;;;;;;17.02;51.44;97202.34;10452377;28;20047;-25
2022/03/17 05:51:09;;;;;;;3.87;1.73;;;;;;;17.05;51.36;97209.94;10466821;28;20701;-26
2022/03/17 05:56:10;;;;;;;3.22;1.55;;;;;;;17.03;51.10;97220.06;10469856;28;20118;-24
2022/03/17 06:01:11;;;;;;;11.67;4.43;;;;;;;17.08;54.73;97223.50;10464804;28;20032;-25
2022/03/17 06:06:11;;;;;;;7.75;2.50;;;;;;;17.11;54.42;97233.69;10465849;28;20435;-25
2022/03/17 06:11:12;;;;;;;4.47;2.50;;;;;;;17.10;51.61;97236.19;10464395;28;20041;-25
2022/03/17 06:16:12;;;;;;;2.23;1.70;;;;;;;17.08;50.95;97237.84;10464431;28;20033;-25
2022/03/17 06:21:13;;;;;;;5.50;1.87;;;;;;;17.04;51.15;97251.25;10464002;28;20041;-24
2022/03/17 06:26:13;;;;;;;2.20;1.65;;;;;;;17.04;51.35;97269.84;10475092;28;20063;-25
2022/03/17 06:31:13;;;;;;;3.47;2.00;;;;;;;17.03;51.77;97280.78;10470297;28;20095;-25
2022/03/17 06:36:14;;;;;;;5.03;1.63;;;;;;;17.03;51.20;97287.50;10460417;28;20290;-25
2022/03/17 06:41:14;;;;;;;7.23;2.30;;;;;;;16.86;51.30;97287.28;10466206;28;20089;-26
2022/03/17 06:46:14;;;;;;;8.50;2.57;;;;;;;16.95;51.31;97286.53;10458145;28;20029;-25
2022/03/17 06:51:15;;;;;;;4.27;1.70;;;;;;;16.98;51.50;97304.31;10466319;28;20562;-24
2022/03/17 06:56:15;;;;;;;2.80;1.60;;;;;;;16.95;50.75;97300.06;10462688;28;20375;-25
2022/03/17 07:01:15;;;;;;;5.40;1.80;;;;;;;16.99;51.11;97311.06;10462176;28;20656;-25
2022/03/17 07:06:16;;;;;;;7.60;2.77;;;;;;;16.95;53.82;97306.78;10460801;28;20400;-25
2022/03/17 07:11:16;;;;;;;4.30;2.20;;;;;;;17.07;54.25;97322.16;10471956;28;20480;-25
2022/03/17 07:16:18;;;;;;;4.40;2.20;;;;;;;17.08;52.58;97328.91;10465367;28;20344;-27
2022/03/17 07:21:19;;;;;;;4.78;1.70;;;;;;;17.04;51.67;97334.75;10464149;28;20071;-25
2022/03/17 07:26:19;;;;;;;2.97;1.63;;;;;;;17.00;50.75;97338.06;10468976;28;20056;-25
2022/03/17 07:31:21;;;;;;;2.67;1.63;;;;;;;16.99;51.08;97341.44;10466857;28;20511;-26
2022/03/17 07:36:22;;;;;;;2.07;1.80;;;;;;;16.93;50.82;97339.66;10460026;28;20043;-25
2022/03/17 07:41:23;;;;;;;2.55;1.67;;;;;;;16.96;50.88;97346.41;10465559;28;20079;-25
2022/03/17 07:46:23;;;;;;;3.38;1.58;;;;;;;16.95;50.90;97347.25;10465184;28;20079;-25
2022/03/17 07:51:50;;;;;;;3.40;1.45;;;;;;;16.96;51.04;97343.88;10431436;28;20440;-25
2022/03/17 07:56:51;;;;;;;1.73;1.40;;;;;;;16.95;50.73;97347.25;10461236;28;20048;-25
2022/03/17 08:01:51;;;;;;;2.20;1.63;;;;;;;16.92;51.09;97345.50;10461810;28;20031;-25
2022/03/17 08:06:53;;;;;;;3.10;1.45;;;;;;;16.94;50.82;97355.66;10467543;28;20060;-25
2022/03/17 08:11:54;;;;;;;2.83;1.70;;;;;;;16.94;53.11;97358.19;10461708;28;20032;-25
2022/03/17 08:16:55;;;;;;;4.00;1.93;;;;;;;17.03;54.50;97360.88;10460453;28;20041;-25
2022/03/17 08:21:56;;;;;;;2.78;1.88;;;;;;;17.06;54.35;97366.00;10463202;28;20032;-25
2022/03/17 08:26:56;;;;;;;2.38;1.60;;;;;;;17.01;52.17;97365.06;10464808;28;20474;-25
2022/03/17 08:31:57;;;;;;;2.00;1.57;;;;;;;16.95;51.28;97364.94;10464995;28;20036;-24
2022/03/17 08:36:59;;;;;;;2.33;1.58;;;;;;;16.91;51.16;97366.56;10459384;28;20029;-25
2022/03/17 08:42:00;;;;;;;1.30;1.20;;;;;;;16.94;50.86;97374.25;10465677;28;20041;-24
2022/03/17 08:52:20;;;;;;;3.13;1.50;;;;;;;16.91;50.68;97391.88;10462972;28;20102;-25
2022/03/17 08:57:20;;;;;;;2.43;1.63;;;;;;;16.92;51.03;97383.44;10468326;28;20032;-26
2022/03/17 09:02:22;;;;;;;1.73;1.35;;;;;;;16.91;51.12;97401.16;10466849;28;20032;-25
2022/03/17 09:07:22;;;;;;;1.77;1.48;;;;;;;16.91;51.04;97408.75;10471214;28;20538;-25
2022/03/17 09:12:22;;;;;;;4.37;1.43;;;;;;;16.92;51.21;97412.97;10464851;28;20029;-24
2022/03/17 09:17:23;;;;;;;3.60;1.60;;;;;;;16.91;51.17;97411.28;10460186;28;20041;-25
2022/03/17 09:22:23;;;;;;;2.73;1.77;;;;;;;16.98;53.98;97402.97;10464609;28;20547;-25
2022/03/17 09:27:23;;;;;;;3.63;1.47;;;;;;;17.04;54.53;97403.03;10466640;28;20544;-25
2022/03/17 09:32:25;;;;;;;2.40;1.63;;;;;;;17.01;54.05;97391.22;10467797;28;20529;-25
2022/03/17 09:37:26;;;;;;;1.80;1.67;;;;;;;16.95;51.46;97392.78;10460961;28;20171;-25
2022/03/17 09:42:26;;;;;;;1.30;1.20;;;;;;;16.92;51.65;97395.25;10463708;28;20132;-25
2022/03/17 09:47:32;;;;;;;1.83;1.60;;;;;;;16.91;51.13;97401.97;10457771;28;20037;-24
2022/03/17 09:52:35;;;;;;;2.40;1.53;;;;;;;16.91;51.24;97398.63;10440561;28;20025;-25
2022/03/17 09:57:37;;;;;;;2.13;1.15;;;;;;;16.89;51.21;97398.59;10466066;28;20037;-25
2022/03/17 10:02:38;;;;;;;2.08;1.30;;;;;;;16.89;51.35;97407.88;10471686;28;20079;-26
2022/03/17 10:07:39;;;;;;;1.85;1.30;;;;;;;16.91;51.00;97403.69;10447483;28;20028;-25
2022/03/17 10:12:39;;;;;;;2.25;1.88;;;;;;;16.92;51.01;97402.84;10461099;28;20025;-25
2022/03/17 10:17:41;;;;;;;2.30;1.77;;;;;;;16.93;50.64;97419.72;10446138;28;20040;-24
2022/03/17 10:22:52;;;;;;;1.95;1.20;;;;;;;16.92;51.47;97412.97;10459228;28;20484;-25
2022/03/17 10:27:54;;;;;;;1.85;1.55;;;;;;;16.93;50.67;97409.59;10468957;28;20085;-24
2022/03/17 10:32:56;;;;;;;1.92;1.73;;;;;;;17.03;54.10;97414.00;10461668;28;20454;-25
2022/03/17 10:37:56;;;;;;;2.28;1.58;;;;;;;17.05;54.20;97404.75;10460373;28;20064;-25
2022/03/17 10:43:24;;;;;;;1.30;1.20;;;;;;;17.02;51.86;97409.75;10462818;28;20494;-25
2022/03/17 10:48:24;;;;;;;2.38;1.25;;;;;;;16.92;51.47;97401.16;10458064;28;20839;-25
2022/03/17 10:53:29;;;;;;;1.50;1.30;;;;;;;16.99;50.86;97415.63;10469824;28;20025;-25
2022/03/17 10:58:41;;;;;;;2.13;1.27;;;;;;;16.96;50.97;97420.63;10466371;28;20057;-25
2022/03/17 11:03:43;;;;;;;1.88;1.30;;;;;;;16.91;50.90;97419.69;10453706;28;20044;-25
2022/03/17 11:08:46;;;;;;;1.30;1.17;;;;;;;16.96;50.88;97440.00;10460666;28;20064;-25
2022/03/17 11:13:47;;;;;;;2.08;1.70;;;;;;;16.95;50.71;97435.78;10461685;28;20048;-26
2022/03/17 11:18:47;;;;;;;2.35;1.75;;;;;;;16.95;51.18;97438.31;10467499;28;20033;-24
2022/03/17 11:23:59;;;;;;;2.20;1.10;;;;;;;16.95;51.11;97438.31;10466761;28;20555;-25
2022/03/17 11:29:10;;;;;;;1.88;1.23;;;;;;;16.95;50.91;97443.38;10453130;28;20115;-25
2022/03/17 11:34:11;;;;;;;1.63;1.52;;;;;;;17.00;50.94;97447.66;10462011;28;20039;-25
2022/03/17 11:39:18;;;;;;;2.72;2.15;;;;;;;17.03;52.91;97449.41;10450225;28;20025;-25
2022/03/17 11:44:32;;;;;;;2.35;1.48;;;;;;;17.09;54.84;97452.06;10450837;28;20481;-24
2022/03/17 11:49:44;;;;;;;3.83;1.73;;;;;;;17.10;51.82;97461.34;10457377;28;20076;-25
2022/03/17 11:54:44;;;;;;;6.60;1.88;;;;;;;17.06;52.42;97464.66;10462206;28;20111;-25
2022/03/17 11:59:54;;;;;;;3.83;1.40;;;;;;;17.02;51.33;97465.41;10459830;28;20124;-25
2022/03/17 12:04:55;;;;;;;2.72;1.23;;;;;;;17.02;51.00;97471.34;10464335;28;20398;-26
2022/03/17 12:09:55;;;;;;;1.90;1.45;;;;;;;17.05;51.10;97476.44;10466618;28;20029;-25
2022/03/17 12:14:59;;;;;;;1.27;1.10;;;;;;;17.02;50.87;97471.34;10461470;28;20036;-26
2022/03/17 12:20:19;;;;;;;1.33;1.02;;;;;;;17.02;51.24;97488.19;10462012;28;20290;-26
2022/03/17 12:25:21;;;;;;;1.63;1.20;;;;;;;17.03;50.67;97487.34;10465427;28;20045;-24
2022/03/17 12:30:23;;;;;;;1.27;1.17;;;;;;;17.04;51.00;97489.06;10456855;28;20477;-26
2022/03/17 12:35:25;;;;;;;5.03;1.63;;;;;;;17.04;51.44;97499.16;10458118;28;20032;-26
2022/03/17 12:40:26;;;;;;;1.67;1.17;;;;;;;17.01;50.96;97499.13;10462742;28;20033;-25
2022/03/17 12:45:26;;;;;;;1.98;1.50;;;;;;;16.94;50.78;97487.19;10459024;28;20451;-25
2022/03/17 12:50:29;;;;;;;5.80;2.90;;;;;;;17.10;56.07;97499.28;10462795;28;20032;-25
2022/03/17 12:55:29;;;;;;;3.80;2.70;;;;;;;17.13;56.13;97499.34;10465890;28;20132;-25
2022/03/17 13:00:31;;;;;;;6.03;1.67;;;;;;;17.10;53.30;97500.16;10458269;28;20043;-25
2022/03/17 13:16:12;;;;;;;3.38;1.35;;;;;;;17.00;51.48;97500.78;10454844;28;20413;-25
2022/03/17 13:21:15;;;;;;;2.53;1.50;;;;;;;16.99;51.57;97495.72;10439996;28;20514;-24
2022/03/17 13:26:20;;;;;;;3.03;1.73;;;;;;;16.95;51.61;97504.06;10447401;28;20454;-24
2022/03/17 13:31:32;;;;;;;2.20;1.40;;;;;;;16.92;51.31;97497.25;10459539;28;20036;-25
2022/03/17 13:36:55;;;;;;;2.78;1.73;;;;;;;16.92;51.63;97504.03;10460315;28;20029;-25
2022/03/17 13:42:03;;;;;;;10.10;2.45;;;;;;;16.90;52.67;97500.63;10459944;28;20098;-25
2022/03/17 13:47:11;;;;;;;10.65;3.35;;;;;;;16.93;52.33;97500.66;10463847;28;20397;-25
2022/03/17 13:52:12;;;;;;;8.80;2.22;;;;;;;16.92;52.26;97502.31;10442632;28;20188;-25
2022/03/17 13:57:17;;;;;;;14.20;4.50;;;;;;;17.02;55.92;97511.81;10460325;28;20403;-25
2022/03/17 14:02:21;;;;;;;15.50;5.15;;;;;;;17.11;57.09;97509.44;10465566;28;20043;-25
2022/03/17 14:07:25;;;;;;;13.43;4.85;;;;;;;17.11;55.92;97508.56;10465518;28;20504;-25
2022/03/17 14:12:25;;;;;;;7.32;3.58;;;;;;;17.08;54.85;97506.84;10450994;28;20123;-24
2022/03/17 14:17:26;;;;;;;10.80;2.90;;;;;;;17.01;52.18;97509.25;10449334;28;20029;-25
2022/03/17 14:27:45;;;;;;;6.90;3.30;;;;;;;16.95;52.02;97524.31;10460520;28;20039;-25
2022/03/17 14:32:46;;;;;;;11.10;4.00;;;;;;;16.92;52.01;97516.66;10451820;28;20059;-25
2022/03/17 14:37:46;;;;;;;9.13;3.90;;;;;;;16.91;51.89;97523.38;10454795;28;20037;-25
2022/03/17 14:42:50;;;;;;;4.82;2.60;;;;;;;16.90;51.57;97520.84;10460583;28;20402;-25
2022/03/17 14:47:50;;;;;;;10.18;4.10;;;;;;;16.92;51.95;97530.16;10447931;28;20037;-25
2022/03/17 14:52:52;;;;;;;63.28;18.88;;;;;;;16.84;54.93;97531.69;10449656;28;20032;-24
2022/03/17 14:57:53;;;;;;;44.33;19.27;;;;;;;16.76;54.01;97539.97;10456051;28;20024;-25
2022/03/17 15:02:53;;;;;;;15.67;5.53;;;;;;;16.86;51.86;97536.78;10438444;28;20401;-25
2022/03/17 15:07:54;;;;;;;30.13;11.93;;;;;;;17.01;56.08;97534.53;10448201;28;20405;-24
2022/03/17 15:12:54;;;;;;;29.00;11.00;;;;;;;17.09;56.52;97538.06;10462471;28;20039;-25
2022/03/17 15:17:55;;;;;;;13.97;8.10;;;;;;;17.08;55.46;97536.38;10459667;28;20294;-25
2022/03/17 15:22:55;;;;;;;8.40;4.88;;;;;;;17.01;52.23;97537.94;10459691;28;20040;-25
2022/03/17 15:33:15;;;;;;;6.20;3.72;;;;;;;16.95;51.68;97536.94;10465736;28;20412;-25
2022/03/17 15:38:15;;;;;;;5.47;3.63;;;;;;;16.94;51.59;97542.84;10458461;28;20045;-25
2022/03/17 15:43:17;;;;;;;4.73;2.80;;;;;;;16.90;51.38;97541.09;10459695;28;20155;-25
2022/03/17 15:48:17;;;;;;;4.60;2.72;;;;;;;16.93;51.95;97549.59;10468928;28;20308;-24
2022/03/17 15:53:19;;;;;;;6.07;2.67;;;;;;;16.94;51.59;97552.94;10470203;28;20043;-25
2022/03/17 15:58:21;;;;;;;6.25;3.13;;;;;;;16.93;51.83;97559.72;10455282;28;20049;-25
2022/03/17 16:03:21;;;;;;;4.68;2.53;;;;;;;16.92;51.73;97564.72;10464524;28;20041;-25
2022/03/17 16:08:22;;;;;;;5.23;3.30;;;;;;;16.92;51.83;97570.63;10465314;28;20385;-25
2022/03/17 16:18:42;;;;;;;8.38;5.45;;;;;;;17.05;55.62;97577.63;10459128;28;20189;-25
2022/03/17 16:23:44;;;;;;;5.85;5.03;;;;;;;17.11;56.02;97581.94;10465648;28;20072;-25
2022/03/17 16:28:45;;;;;;;6.60;4.65;;;;;;;17.07;53.65;97595.38;10463977;28;20032;-26
2022/03/17 16:33:47;;;;;;;4.82;3.53;;;;;;;17.00;52.29;97591.03;10456388;28;20078;-25
2022/03/17 16:38:47;;;;;;;11.85;4.82;;;;;;;16.87;52.67;97594.13;10455581;28;20424;-25
2022/03/17 16:43:48;;;;;;;6.97;2.95;;;;;;;16.93;51.59;97606.91;10459585;28;20037;-25
2022/03/17 16:48:48;;;;;;;4.23;3.00;;;;;;;16.92;51.59;97613.63;10465760;28;20029;-25
2022/03/17 16:53:49;;;;;;;14.47;6.20;;;;;;;16.85;52.31;97613.47;10464327;28;20464;-25
2022/03/17 16:58:50;;;;;;;7.65;3.67;;;;;;;16.90;51.73;97616.97;10462057;28;20044;-25
2022/03/17 17:03:51;;;;;;;22.23;10.88;;;;;;;16.85;52.64;97628.66;10470158;28;20466;-24
2022/03/17 17:08:51;;;;;;;4.80;3.67;;;;;;;16.92;51.50;97630.50;10469838;28;20086;-24
2022/03/17 17:13:52;;;;;;;8.63;3.10;;;;;;;16.96;51.42;97644.88;10463422;28;20123;-25
2022/03/17 17:18:52;;;;;;;3.50;3.03;;;;;;;16.96;51.63;97647.41;10473796;28;20028;-26
2022/03/17 17:34:31;;;;;;;21.70;7.50;;;;;;;17.13;56.20;97666.31;10465504;28;20039;-25
2022/03/17 17:39:32;;;;;;;7.95;3.50;;;;;;;17.03;52.25;97680.47;10464185;28;20029;-25
2022/03/17 17:44:33;;;;;;;3.88;2.65;;;;;;;17.00;51.72;97680.41;10470157;28;20128;-24
2022/03/17 17:49:33;;;;;;;6.65;2.80;;;;;;;16.99;51.62;97698.09;10453043;28;20035;-24
2022/03/17 17:54:34;;;;;;;4.07;2.75;;;;;;;16.99;51.66;97708.22;10458356;28;20043;-23
2022/03/17 17:59:34;;;;;;;4.65;2.78;;;;;;;17.01;51.79;97724.28;10418834;28;20037;-24
2022/03/17 18:04:35;;;;;;;5.47;3.13;;;;;;;17.00;51.46;97720.03;10452877;28;20489;-23
2022/03/17 18:09:35;;;;;;;4.97;2.90;;;;;;;17.00;51.93;97720.03;10466576;28;20029;-24
2022/03/17 18:14:35;;;;;;;4.97;2.97;;;;;;;16.98;51.55;97721.69;10461974;28;20155;-24
2022/03/17 18:19:36;;;;;;;4.20;3.03;;;;;;;16.79;51.64;97700.19;10456056;28;20035;-24
2022/03/17 18:24:36;;;;;;;46.50;6.10;;;;;;;16.95;53.22;97737.66;10457810;28;20042;-24
2022/03/17 18:29:38;;;;;;;9.77;3.53;;;;;;;17.00;52.41;97745.34;10462518;28;20776;-23
2022/03/17 18:34:38;;;;;;;12.05;5.45;;;;;;;17.03;55.19;97743.72;10436283;28;20045;-23
2022/03/17 18:39:38;;;;;;;20.27;10.40;;;;;;;17.10;55.77;97754.84;10453747;28;20044;-24
2022/03/17 18:44:39;;;;;;;12.67;6.63;;;;;;;17.15;56.52;97763.38;10468264;28;20417;-24
2022/03/17 18:49:39;;;;;;;4.43;3.40;;;;;;;17.08;52.42;97774.19;10455391;28;20030;-24
2022/03/17 18:54:40;;;;;;;6.97;3.35;;;;;;;17.04;51.98;97778.31;10452111;28;20029;-23
2022/03/17 18:59:41;;;;;;;6.05;3.58;;;;;;;17.05;52.01;97784.22;10450316;28;20055;-25
2022/03/17 19:04:41;;;;;;;11.68;3.45;;;;;;;17.03;51.68;97796.00;10456867;28;20052;-24
2022/03/17 19:09:41;;;;;;;4.67;3.10;;;;;;;17.00;51.75;97798.47;10458301;28;20041;-24
2022/03/17 19:14:42;;;;;;;8.17;3.30;;;;;;;17.01;51.47;97811.16;10442050;28;20040;-24
2022/03/17 19:19:42;;;;;;;7.53;3.43;;;;;;;16.99;51.48;97824.59;10447385;28;20025;-24
2022/03/17 19:24:43;;;;;;;6.45;3.30;;;;;;;16.98;51.49;97833.84;10440871;28;20292;-25
2022/03/17 19:29:43;;;;;;;6.55;3.30;;;;;;;17.01;51.56;97843.19;10453681;28;20086;-24
2022/03/17 19:34:45;;;;;;;8.57;4.30;;;;;;;16.94;52.30;97843.84;10447174;28;20031;-24
2022/03/17 19:39:47;;;;;;;6.10;3.55;;;;;;;16.96;52.02;97859.91;10448502;28;20291;-24
2022/03/17 19:44:47;;;;;;;14.00;8.68;;;;;;;17.04;57.01;97860.94;10448821;28;20065;-24
2022/03/17 19:55:07;;;;;;;14.25;9.10;;;;;;;17.14;57.88;97870.50;10452850;28;20039;-24
2022/03/17 20:00:11;;;;;;;5.03;3.13;;;;;;;17.05;52.04;97881.22;10430768;28;20032;-23
2022/03/17 20:05:11;;;;;;;3.50;2.97;;;;;;;17.06;51.82;97889.69;10446107;28;20057;-24
2022/03/17 20:10:12;;;;;;;9.25;4.82;;;;;;;17.00;55.36;97887.00;10444857;28;20028;-24
2022/03/17 20:15:13;;;;;;;4.43;4.03;;;;;;;17.06;51.84;97892.22;10448737;28;20032;-24
2022/03/17 20:20:14;;;;;;;4.57;3.40;;;;;;;17.08;51.51;97893.13;10440356;28;20029;-24
2022/03/17 20:25:14;;;;;;;5.57;3.50;;;;;;;17.06;51.59;97905.72;10437162;28;20051;-24
2022/03/17 20:30:14;;;;;;;5.53;3.30;;;;;;;17.03;51.35;97902.25;10442948;28;20067;-24
2022/03/17 20:35:15;;;;;;;4.27;3.10;;;;;;;17.06;51.45;97922.59;10430328;28;20037;-24
2022/03/17 20:40:15;;;;;;;4.00;2.83;;;;;;;17.06;51.71;97925.13;10447812;28;20119;-23
2022/03/17 20:45:16;;;;;;;12.30;10.17;;;;;;;17.10;57.26;97924.34;10445684;28;20511;-23
2022/03/17 20:50:16;;;;;;;12.10;9.43;;;;;;;17.15;58.12;97923.66;10454230;28;20037;-24
2022/03/17 20:55:17;;;;;;;10.38;7.40;;;;;;;17.12;54.80;97926.13;10459570;28;20041;-24
2022/03/17 21:00:19;;;;;;;5.53;5.03;;;;;;;17.11;52.11;97936.19;10447483;28;20448;-23
2022/03/17 21:05:20;;;;;;;5.47;3.28;;;;;;;17.07;51.60;97939.47;10446190;28;20140;-23
2022/03/17 21:10:21;;;;;;;4.03;3.53;;;;;;;17.05;51.50;97941.97;10448888;28;20029;-24
2022/03/17 21:15:21;;;;;;;4.43;3.33;;;;;;;17.04;51.60;97950.38;10421987;28;20408;-24
2022/03/17 21:20:22;;;;;;;4.45;3.45;;;;;;;16.97;51.44;97947.63;10438128;28;20033;-24
2022/03/17 21:25:23;;;;;;;6.25;3.75;;;;;;;17.05;51.21;97961.31;10453627;28;20044;-24
2022/03/17 21:30:23;;;;;;;5.63;3.23;;;;;;;17.05;51.35;97966.38;10460192;28;20082;-24
2022/03/17 21:35:25;;;;;;;3.75;3.05;;;;;;;16.98;51.70;97960.31;10456563;28;20083;-24
2022/03/17 21:40:26;;;;;;;5.93;3.88;;;;;;;17.04;51.55;97969.75;10468843;28;20054;-25
2022/03/17 21:45:27;;;;;;;4.65;3.65;;;;;;;17.06;51.37;97978.25;10453244;28;20120;-23
2022/03/17 21:50:27;;;;;;;9.18;7.40;;;;;;;17.09;57.58;97978.31;10474631;28;20033;-24
2022/03/17 21:55:27;;;;;;;12.13;7.57;;;;;;;17.13;58.25;97986.03;10476133;28;20045;-23
2022/03/17 22:00:28;;;;;;;8.50;5.63;;;;;;;17.05;53.79;97973.97;10475502;28;20291;-24
2022/03/17 22:05:28;;;;;;;5.87;3.97;;;;;;;17.07;51.83;97982.50;10471588;28;20845;-23
2022/03/17 22:10:29;;;;;;;3.25;2.97;;;;;;;17.04;51.55;97988.31;10481984;28;20032;-24
2022/03/17 22:15:29;;;;;;;4.03;3.63;;;;;;;17.01;51.47;97987.38;10471399;28;20047;-23
2022/03/17 22:20:30;;;;;;;3.97;3.22;;;;;;;17.01;51.38;97994.97;10456858;28;20036;-24
2022/03/17 22:25:31;;;;;;;4.55;3.15;;;;;;;17.01;51.30;97984.84;10436107;28;20405;-22
2022/03/17 22:30:31;;;;;;;5.28;3.25;;;;;;;17.01;51.48;97990.78;10450443;28;20112;-24
2022/03/17 22:35:32;;;;;;;4.33;3.77;;;;;;;16.97;51.41;97980.50;10464489;28;20488;-24
2022/03/17 22:45:52;;;;;;;4.78;3.13;;;;;;;16.99;51.36;97986.50;10463579;28;20043;-24
2022/03/17 22:50:53;;;;;;;3.92;3.40;;;;;;;16.99;51.50;97989.03;10460293;28;20031;-24
2022/03/17 22:55:54;;;;;;;5.75;4.80;;;;;;;17.01;54.81;97989.91;10461247;28;20071;-24
2022/03/17 23:00:54;;;;;;;8.73;5.70;;;;;;;17.10;57.27;97987.63;10463674;28;20040;-23
2022/03/17 23:05:54;;;;;;;5.30;4.80;;;;;;;17.13;56.96;97995.28;10457447;28;20047;-24
2022/03/17 23:10:55;;;;;;;7.70;3.90;;;;;;;17.07;52.03;97995.13;10467053;28;20032;-24
2022/03/17 23:15:55;;;;;;;4.17;3.77;;;;;;;17.03;51.28;97993.34;10454656;28;20287;-24
2022/03/17 23:20:56;;;;;;;5.30;3.50;;;;;;;17.01;51.52;97992.44;10451619;28;20040;-24
2022/03/17 23:25:56;;;;;;;6.83;4.10;;;;;;;16.91;51.45;97987.97;10464718;28;20286;-24
2022/03/17 23:30:57;;;;;;;4.05;3.65;;;;;;;16.99;51.34;97996.63;10448005;28;20290;-24
2022/03/17 23:35:58;;;;;;;4.70;3.67;;;;;;;16.99;51.18;97996.63;10459349;28;20059;-24
2022/03/17 23:40:59;;;;;;;4.45;3.20;;;;;;;16.97;51.49;97999.09;10460399;28;20846;-24
2022/03/17 23:45:59;;;;;;;6.03;2.97;;;;;;;16.97;51.25;98008.34;10459528;28;20051;-24
2022/03/17 23:51:00;;;;;;;3.50;3.20;;;;;;;16.97;51.24;97999.09;10460328;28;20028;-25
2022/03/17 23:56:01;;;;;;;3.75;3.40;;;;;;;16.97;51.21;98008.34;10452979;28;20294;-24
